sensor_id;sensor_type;location;lat;lon;timestamp;temperature;humidity
60701;DHT22;46541;49.894;10.886;2023-09-07T00:02:07;19.00;99.90
60701;DHT22;46541;49.894;10.886;2023-09-07T00:04:34;18.90;99.90
60701;DHT22;46541;49.894;10.886;2023-09-07T00:07:01;18.90;99.90
60701;DHT22;46541;49.894;10.886;2023-09-07T00:09:28;18.90;99.90
60701;DHT22;46541;49.894;10.886;2023-09-07T00:11:55;18.90;99.90
60701;DHT22;46541;49.894;10.886;2023-09-07T00:14:22;18.80;99.90
60701;DHT22;46541;49.894;10.886;2023-09-07T00:16:49;18.90;99.90
60701;DHT22;46541;49.894;10.886;2023-09-07T00:19:16;18.80;99.90
60701;DHT22;46541;49.894;10.886;2023-09-07T00:21:43;18.80;99.90
60701;DHT22;46541;49.894;10.886;2023-09-07T00:24:09;18.80;99.90
60701;DHT22;46541;49.894;10.886;2023-09-07T00:26:37;18.70;99.90
60701;DHT22;46541;49.894;10.886;2023-09-07T00:29:03;18.70;99.90
60701;DHT22;46541;49.894;10.886;2023-09-07T00:31:30;18.70;99.90
60701;DHT22;46541;49.894;10.886;2023-09-07T00:33:57;18.70;99.90
60701;DHT22;46541;49.894;10.886;2023-09-07T00:36:24;18.70;99.90
60701;DHT22;46541;49.894;10.886;2023-09-07T00:38:51;18.70;99.90
60701;DHT22;46541;49.894;10.886;2023-09-07T00:41:18;18.60;99.90
60701;DHT22;46541;49.894;10.886;2023-09-07T00:43:44;18.70;99.90
60701;DHT22;46541;49.894;10.886;2023-09-07T00:46:11;18.70;99.90
60701;DHT22;46541;49.894;10.886;2023-09-07T00:48:39;18.70;99.90
60701;DHT22;46541;49.894;10.886;2023-09-07T00:51:05;18.60;99.90
60701;DHT22;46541;49.894;10.886;2023-09-07T00:53:33;18.60;99.90
60701;DHT22;46541;49.894;10.886;2023-09-07T00:56:00;18.60;99.90
60701;DHT22;46541;49.894;10.886;2023-09-07T00:58:28;18.60;99.90
60701;DHT22;46541;49.894;10.886;2023-09-07T01:00:57;18.50;99.90
60701;DHT22;46541;49.894;10.886;2023-09-07T01:03:24;18.50;99.90
60701;DHT22;46541;49.894;10.886;2023-09-07T01:06:16;18.40;99.90
60701;DHT22;46541;49.894;10.886;2023-09-07T01:08:46;18.40;99.90
60701;DHT22;46541;49.894;10.886;2023-09-07T01:11:19;18.40;99.90
60701;DHT22;46541;49.894;10.886;2023-09-07T01:13:52;18.40;99.90
60701;DHT22;46541;49.894;10.886;2023-09-07T01:16:23;18.30;99.90
60701;DHT22;46541;49.894;10.886;2023-09-07T01:18:51;18.30;99.90
60701;DHT22;46541;49.894;10.886;2023-09-07T01:21:18;18.30;99.90
60701;DHT22;46541;49.894;10.886;2023-09-07T01:23:46;18.20;99.90
60701;DHT22;46541;49.894;10.886;2023-09-07T01:26:14;18.20;99.90
60701;DHT22;46541;49.894;10.886;2023-09-07T01:28:41;18.20;99.90
60701;DHT22;46541;49.894;10.886;2023-09-07T01:31:08;18.20;99.90
60701;DHT22;46541;49.894;10.886;2023-09-07T01:33:36;18.10;99.90
60701;DHT22;46541;49.894;10.886;2023-09-07T01:36:04;18.10;99.90
60701;DHT22;46541;49.894;10.886;2023-09-07T01:38:30;18.10;99.90
60701;DHT22;46541;49.894;10.886;2023-09-07T01:40:58;18.10;99.90
60701;DHT22;46541;49.894;10.886;2023-09-07T01:43:25;18.00;99.90
60701;DHT22;46541;49.894;10.886;2023-09-07T01:45:51;18.00;99.90
60701;DHT22;46541;49.894;10.886;2023-09-07T01:48:18;18.00;99.90
60701;DHT22;46541;49.894;10.886;2023-09-07T01:50:45;18.00;99.90
60701;DHT22;46541;49.894;10.886;2023-09-07T01:53:12;18.00;99.90
60701;DHT22;46541;49.894;10.886;2023-09-07T01:55:38;18.00;99.90
60701;DHT22;46541;49.894;10.886;2023-09-07T01:58:05;18.00;99.90
60701;DHT22;46541;49.894;10.886;2023-09-07T02:00:37;18.00;99.90
60701;DHT22;46541;49.894;10.886;2023-09-07T02:03:05;18.00;99.90
60701;DHT22;46541;49.894;10.886;2023-09-07T02:05:33;18.00;99.90
60701;DHT22;46541;49.894;10.886;2023-09-07T02:07:59;17.90;99.90
60701;DHT22;46541;49.894;10.886;2023-09-07T02:10:26;17.90;99.90
60701;DHT22;46541;49.894;10.886;2023-09-07T02:12:53;17.90;99.90
60701;DHT22;46541;49.894;10.886;2023-09-07T02:15:20;17.80;99.90
60701;DHT22;46541;49.894;10.886;2023-09-07T02:17:47;17.80;99.90
60701;DHT22;46541;49.894;10.886;2023-09-07T02:20:14;17.80;99.90
60701;DHT22;46541;49.894;10.886;2023-09-07T02:22:40;17.70;99.90
60701;DHT22;46541;49.894;10.886;2023-09-07T02:25:07;17.70;99.90
60701;DHT22;46541;49.894;10.886;2023-09-07T02:27:35;17.60;99.90
60701;DHT22;46541;49.894;10.886;2023-09-07T02:30:05;17.60;99.90
60701;DHT22;46541;49.894;10.886;2023-09-07T02:32:32;17.60;99.90
60701;DHT22;46541;49.894;10.886;2023-09-07T02:34:59;17.60;99.90
60701;DHT22;46541;49.894;10.886;2023-09-07T02:37:26;17.60;99.90
60701;DHT22;46541;49.894;10.886;2023-09-07T02:39:53;17.60;99.90
60701;DHT22;46541;49.894;10.886;2023-09-07T02:42:19;17.60;99.90
60701;DHT22;46541;49.894;10.886;2023-09-07T02:44:46;17.60;99.90
60701;DHT22;46541;49.894;10.886;2023-09-07T02:47:13;17.60;99.90
60701;DHT22;46541;49.894;10.886;2023-09-07T02:49:40;17.60;99.90
60701;DHT22;46541;49.894;10.886;2023-09-07T02:52:07;17.60;99.90
60701;DHT22;46541;49.894;10.886;2023-09-07T02:54:34;17.50;99.90
60701;DHT22;46541;49.894;10.886;2023-09-07T02:57:01;17.60;99.90
60701;DHT22;46541;49.894;10.886;2023-09-07T02:59:27;17.50;99.90
60701;DHT22;46541;49.894;10.886;2023-09-07T03:01:54;17.50;99.90
60701;DHT22;46541;49.894;10.886;2023-09-07T03:04:21;17.50;99.90
60701;DHT22;46541;49.894;10.886;2023-09-07T03:06:48;17.50;99.90
60701;DHT22;46541;49.894;10.886;2023-09-07T03:09:14;17.50;99.90
60701;DHT22;46541;49.894;10.886;2023-09-07T03:11:41;17.40;99.90
60701;DHT22;46541;49.894;10.886;2023-09-07T03:14:08;17.40;99.90
60701;DHT22;46541;49.894;10.886;2023-09-07T03:16:35;17.30;99.90
60701;DHT22;46541;49.894;10.886;2023-09-07T03:19:01;17.40;99.90
60701;DHT22;46541;49.894;10.886;2023-09-07T03:21:29;17.30;99.90
60701;DHT22;46541;49.894;10.886;2023-09-07T03:23:57;17.40;99.90
60701;DHT22;46541;49.894;10.886;2023-09-07T03:26:24;17.30;99.90
60701;DHT22;46541;49.894;10.886;2023-09-07T03:28:51;17.40;99.90
60701;DHT22;46541;49.894;10.886;2023-09-07T03:31:19;17.30;99.90
60701;DHT22;46541;49.894;10.886;2023-09-07T03:33:46;17.30;99.90
60701;DHT22;46541;49.894;10.886;2023-09-07T03:36:13;17.30;99.90
60701;DHT22;46541;49.894;10.886;2023-09-07T03:38:42;17.30;99.90
60701;DHT22;46541;49.894;10.886;2023-09-07T03:41:10;17.30;99.90
60701;DHT22;46541;49.894;10.886;2023-09-07T03:43:36;17.30;99.90
60701;DHT22;46541;49.894;10.886;2023-09-07T03:46:03;17.20;99.90
60701;DHT22;46541;49.894;10.886;2023-09-07T03:48:30;17.20;99.90
60701;DHT22;46541;49.894;10.886;2023-09-07T03:50:57;17.10;99.90
60701;DHT22;46541;49.894;10.886;2023-09-07T03:53:24;17.10;99.90
60701;DHT22;46541;49.894;10.886;2023-09-07T03:55:51;17.10;99.90
60701;DHT22;46541;49.894;10.886;2023-09-07T03:58:18;17.10;99.90
60701;DHT22;46541;49.894;10.886;2023-09-07T04:00:45;17.10;99.90
60701;DHT22;46541;49.894;10.886;2023-09-07T04:03:12;17.10;99.90
60701;DHT22;46541;49.894;10.886;2023-09-07T04:05:39;17.00;99.90
60701;DHT22;46541;49.894;10.886;2023-09-07T04:08:06;17.00;99.90
60701;DHT22;46541;49.894;10.886;2023-09-07T04:10:36;17.00;99.90
60701;DHT22;46541;49.894;10.886;2023-09-07T04:13:04;17.00;99.90
60701;DHT22;46541;49.894;10.886;2023-09-07T04:15:31;17.00;99.90
60701;DHT22;46541;49.894;10.886;2023-09-07T04:17:58;17.00;99.90
60701;DHT22;46541;49.894;10.886;2023-09-07T04:20:25;17.00;99.90
60701;DHT22;46541;49.894;10.886;2023-09-07T04:22:52;17.00;99.90
60701;DHT22;46541;49.894;10.886;2023-09-07T04:25:20;16.90;99.90
60701;DHT22;46541;49.894;10.886;2023-09-07T04:27:47;16.90;99.90
60701;DHT22;46541;49.894;10.886;2023-09-07T04:30:13;16.80;99.90
60701;DHT22;46541;49.894;10.886;2023-09-07T04:32:40;16.70;99.90
60701;DHT22;46541;49.894;10.886;2023-09-07T04:35:07;16.70;99.90
60701;DHT22;46541;49.894;10.886;2023-09-07T04:37:34;16.60;99.90
60701;DHT22;46541;49.894;10.886;2023-09-07T04:40:01;16.60;99.90
60701;DHT22;46541;49.894;10.886;2023-09-07T04:42:29;16.50;99.90
60701;DHT22;46541;49.894;10.886;2023-09-07T04:44:56;16.50;99.90
60701;DHT22;46541;49.894;10.886;2023-09-07T04:47:22;16.50;99.90
60701;DHT22;46541;49.894;10.886;2023-09-07T04:49:50;16.50;99.90
60701;DHT22;46541;49.894;10.886;2023-09-07T04:52:17;16.50;99.90
60701;DHT22;46541;49.894;10.886;2023-09-07T04:54:45;16.50;99.90
60701;DHT22;46541;49.894;10.886;2023-09-07T04:57:13;16.50;99.90
60701;DHT22;46541;49.894;10.886;2023-09-07T04:59:40;16.50;99.90
60701;DHT22;46541;49.894;10.886;2023-09-07T05:02:07;16.50;99.90
60701;DHT22;46541;49.894;10.886;2023-09-07T05:04:33;16.50;99.90
60701;DHT22;46541;49.894;10.886;2023-09-07T05:07:00;16.50;99.90
60701;DHT22;46541;49.894;10.886;2023-09-07T05:09:27;16.60;99.90
60701;DHT22;46541;49.894;10.886;2023-09-07T05:11:56;16.60;99.90
60701;DHT22;46541;49.894;10.886;2023-09-07T05:14:23;16.60;99.90
60701;DHT22;46541;49.894;10.886;2023-09-07T05:16:51;16.50;99.90
60701;DHT22;46541;49.894;10.886;2023-09-07T05:19:17;16.50;99.90
60701;DHT22;46541;49.894;10.886;2023-09-07T05:21:44;16.50;99.90
60701;DHT22;46541;49.894;10.886;2023-09-07T05:24:13;16.50;99.90
60701;DHT22;46541;49.894;10.886;2023-09-07T05:26:44;16.50;99.90
60701;DHT22;46541;49.894;10.886;2023-09-07T05:29:11;16.50;99.90
60701;DHT22;46541;49.894;10.886;2023-09-07T05:31:39;16.60;99.90
60701;DHT22;46541;49.894;10.886;2023-09-07T05:34:05;16.60;99.90
60701;DHT22;46541;49.894;10.886;2023-09-07T05:36:32;16.60;99.90
60701;DHT22;46541;49.894;10.886;2023-09-07T05:38:59;16.70;99.90
60701;DHT22;46541;49.894;10.886;2023-09-07T05:41:28;16.70;99.90
60701;DHT22;46541;49.894;10.886;2023-09-07T05:43:55;16.70;99.90
60701;DHT22;46541;49.894;10.886;2023-09-07T05:46:22;16.70;99.90
60701;DHT22;46541;49.894;10.886;2023-09-07T05:48:48;16.70;99.90
60701;DHT22;46541;49.894;10.886;2023-09-07T05:51:15;16.80;99.90
60701;DHT22;46541;49.894;10.886;2023-09-07T05:53:42;16.80;99.90
60701;DHT22;46541;49.894;10.886;2023-09-07T05:56:09;16.80;99.90
60701;DHT22;46541;49.894;10.886;2023-09-07T05:58:35;16.80;99.90
60701;DHT22;46541;49.894;10.886;2023-09-07T06:01:02;16.90;99.90
60701;DHT22;46541;49.894;10.886;2023-09-07T06:03:29;16.90;99.90
60701;DHT22;46541;49.894;10.886;2023-09-07T06:05:56;16.90;99.90
60701;DHT22;46541;49.894;10.886;2023-09-07T06:08:23;16.90;99.90
60701;DHT22;46541;49.894;10.886;2023-09-07T06:10:50;17.00;99.90
60701;DHT22;46541;49.894;10.886;2023-09-07T06:13:17;17.00;99.90
60701;DHT22;46541;49.894;10.886;2023-09-07T06:15:43;17.00;99.90
60701;DHT22;46541;49.894;10.886;2023-09-07T06:18:10;17.00;99.90
60701;DHT22;46541;49.894;10.886;2023-09-07T06:20:37;17.00;99.90
60701;DHT22;46541;49.894;10.886;2023-09-07T06:23:04;17.10;99.90
60701;DHT22;46541;49.894;10.886;2023-09-07T06:25:31;17.10;99.90
60701;DHT22;46541;49.894;10.886;2023-09-07T06:27:59;17.20;99.90
60701;DHT22;46541;49.894;10.886;2023-09-07T06:30:25;17.20;99.90
60701;DHT22;46541;49.894;10.886;2023-09-07T06:32:52;17.30;99.90
60701;DHT22;46541;49.894;10.886;2023-09-07T06:35:20;17.30;99.90
60701;DHT22;46541;49.894;10.886;2023-09-07T06:37:47;17.40;99.90
60701;DHT22;46541;49.894;10.886;2023-09-07T06:40:13;17.50;99.90
60701;DHT22;46541;49.894;10.886;2023-09-07T06:42:42;17.60;99.90
60701;DHT22;46541;49.894;10.886;2023-09-07T06:45:09;17.70;99.90
60701;DHT22;46541;49.894;10.886;2023-09-07T06:47:36;17.70;99.90
60701;DHT22;46541;49.894;10.886;2023-09-07T06:50:03;17.80;99.90
60701;DHT22;46541;49.894;10.886;2023-09-07T06:52:31;17.90;99.90
60701;DHT22;46541;49.894;10.886;2023-09-07T06:54:57;17.90;99.90
60701;DHT22;46541;49.894;10.886;2023-09-07T06:57:24;18.10;99.90
60701;DHT22;46541;49.894;10.886;2023-09-07T06:59:51;18.10;99.90
60701;DHT22;46541;49.894;10.886;2023-09-07T07:02:18;18.30;99.90
60701;DHT22;46541;49.894;10.886;2023-09-07T07:04:45;18.30;99.90
60701;DHT22;46541;49.894;10.886;2023-09-07T07:07:13;18.40;99.90
60701;DHT22;46541;49.894;10.886;2023-09-07T07:09:39;18.60;99.90
60701;DHT22;46541;49.894;10.886;2023-09-07T07:12:06;18.60;99.90
60701;DHT22;46541;49.894;10.886;2023-09-07T07:14:33;18.70;99.90
60701;DHT22;46541;49.894;10.886;2023-09-07T07:17:00;18.80;99.90
60701;DHT22;46541;49.894;10.886;2023-09-07T07:19:31;18.90;99.90
60701;DHT22;46541;49.894;10.886;2023-09-07T07:21:57;19.10;99.90
60701;DHT22;46541;49.894;10.886;2023-09-07T07:24:24;19.20;99.90
60701;DHT22;46541;49.894;10.886;2023-09-07T07:26:51;19.30;99.90
60701;DHT22;46541;49.894;10.886;2023-09-07T07:29:18;19.50;99.90
60701;DHT22;46541;49.894;10.886;2023-09-07T07:31:44;19.60;99.90
60701;DHT22;46541;49.894;10.886;2023-09-07T07:34:12;19.70;99.90
60701;DHT22;46541;49.894;10.886;2023-09-07T07:36:39;19.80;99.90
60701;DHT22;46541;49.894;10.886;2023-09-07T07:39:06;20.00;99.90
60701;DHT22;46541;49.894;10.886;2023-09-07T07:41:36;20.10;99.90
60701;DHT22;46541;49.894;10.886;2023-09-07T07:44:06;20.30;99.90
60701;DHT22;46541;49.894;10.886;2023-09-07T07:46:33;20.40;99.90
60701;DHT22;46541;49.894;10.886;2023-09-07T07:49:00;20.50;99.90
60701;DHT22;46541;49.894;10.886;2023-09-07T07:51:26;20.70;99.90
60701;DHT22;46541;49.894;10.886;2023-09-07T07:53:54;20.80;99.90
60701;DHT22;46541;49.894;10.886;2023-09-07T07:56:23;20.90;99.90
60701;DHT22;46541;49.894;10.886;2023-09-07T07:58:50;21.10;99.90
60701;DHT22;46541;49.894;10.886;2023-09-07T08:01:18;21.30;99.90
60701;DHT22;46541;49.894;10.886;2023-09-07T08:03:46;21.40;99.90
60701;DHT22;46541;49.894;10.886;2023-09-07T08:06:14;21.60;99.90
60701;DHT22;46541;49.894;10.886;2023-09-07T08:08:41;21.80;99.90
60701;DHT22;46541;49.894;10.886;2023-09-07T08:11:08;21.90;99.90
60701;DHT22;46541;49.894;10.886;2023-09-07T08:13:36;22.00;99.90
60701;DHT22;46541;49.894;10.886;2023-09-07T08:16:04;22.10;99.90
60701;DHT22;46541;49.894;10.886;2023-09-07T08:18:34;22.20;99.90
60701;DHT22;46541;49.894;10.886;2023-09-07T08:21:02;22.30;99.90
60701;DHT22;46541;49.894;10.886;2023-09-07T08:23:29;22.40;99.90
60701;DHT22;46541;49.894;10.886;2023-09-07T08:25:56;22.50;99.90
60701;DHT22;46541;49.894;10.886;2023-09-07T08:28:23;22.60;99.90
60701;DHT22;46541;49.894;10.886;2023-09-07T08:30:52;22.80;99.90
60701;DHT22;46541;49.894;10.886;2023-09-07T08:33:23;23.00;99.90
60701;DHT22;46541;49.894;10.886;2023-09-07T08:35:53;23.10;99.90
60701;DHT22;46541;49.894;10.886;2023-09-07T08:38:22;23.20;99.90
60701;DHT22;46541;49.894;10.886;2023-09-07T08:40:54;23.30;99.90
60701;DHT22;46541;49.894;10.886;2023-09-07T08:43:22;23.50;99.90
60701;DHT22;46541;49.894;10.886;2023-09-07T08:46:13;23.60;99.90
60701;DHT22;46541;49.894;10.886;2023-09-07T08:48:43;23.70;99.90
60701;DHT22;46541;49.894;10.886;2023-09-07T08:51:12;23.90;99.90
60701;DHT22;46541;49.894;10.886;2023-09-07T08:53:40;24.00;99.90
60701;DHT22;46541;49.894;10.886;2023-09-07T08:56:07;24.10;99.90
60701;DHT22;46541;49.894;10.886;2023-09-07T08:58:36;24.30;99.90
60701;DHT22;46541;49.894;10.886;2023-09-07T09:01:03;24.50;99.90
60701;DHT22;46541;49.894;10.886;2023-09-07T09:03:35;24.60;99.90
60701;DHT22;46541;49.894;10.886;2023-09-07T09:06:03;24.70;99.20
60701;DHT22;46541;49.894;10.886;2023-09-07T09:09:02;24.90;98.90
60701;DHT22;46541;49.894;10.886;2023-09-07T09:11:31;25.00;98.90
60701;DHT22;46541;49.894;10.886;2023-09-07T09:13:58;25.10;97.80
60701;DHT22;46541;49.894;10.886;2023-09-07T09:16:25;25.20;97.50
60701;DHT22;46541;49.894;10.886;2023-09-07T09:18:54;25.30;97.70
60701;DHT22;46541;49.894;10.886;2023-09-07T09:21:22;25.40;97.90
60701;DHT22;46541;49.894;10.886;2023-09-07T09:23:51;25.60;97.70
60701;DHT22;46541;49.894;10.886;2023-09-07T09:26:19;25.70;97.10
60701;DHT22;46541;49.894;10.886;2023-09-07T09:28:46;25.70;95.70
60701;DHT22;46541;49.894;10.886;2023-09-07T09:31:14;25.80;95.90
60701;DHT22;46541;49.894;10.886;2023-09-07T09:33:42;26.00;95.50
60701;DHT22;46541;49.894;10.886;2023-09-07T09:36:09;26.10;95.50
60701;DHT22;46541;49.894;10.886;2023-09-07T09:38:36;26.30;95.10
60701;DHT22;46541;49.894;10.886;2023-09-07T09:41:04;26.50;94.80
60701;DHT22;46541;49.894;10.886;2023-09-07T09:43:31;26.60;94.40
60701;DHT22;46541;49.894;10.886;2023-09-07T09:45:59;26.70;93.90
60701;DHT22;46541;49.894;10.886;2023-09-07T09:48:27;26.70;93.40
60701;DHT22;46541;49.894;10.886;2023-09-07T09:50:55;26.80;93.10
60701;DHT22;46541;49.894;10.886;2023-09-07T09:53:23;27.00;92.80
60701;DHT22;46541;49.894;10.886;2023-09-07T09:55:50;27.10;92.00
60701;DHT22;46541;49.894;10.886;2023-09-07T09:58:21;27.30;91.80
60701;DHT22;46541;49.894;10.886;2023-09-07T10:00:53;27.30;92.00
60701;DHT22;46541;49.894;10.886;2023-09-07T10:03:29;27.50;91.80
60701;DHT22;46541;49.894;10.886;2023-09-07T10:06:23;27.60;91.10
60701;DHT22;46541;49.894;10.886;2023-09-07T10:09:05;27.70;90.50
60701;DHT22;46541;49.894;10.886;2023-09-07T10:11:35;27.90;90.60
60701;DHT22;46541;49.894;10.886;2023-09-07T10:14:06;27.90;89.40
60701;DHT22;46541;49.894;10.886;2023-09-07T10:16:51;28.00;90.00
60701;DHT22;46541;49.894;10.886;2023-09-07T10:19:22;28.10;90.20
60701;DHT22;46541;49.894;10.886;2023-09-07T10:21:49;28.20;90.50
60701;DHT22;46541;49.894;10.886;2023-09-07T10:24:30;28.20;88.10
60701;DHT22;46541;49.894;10.886;2023-09-07T10:27:02;28.20;87.50
60701;DHT22;46541;49.894;10.886;2023-09-07T10:29:29;28.20;87.80
60701;DHT22;46541;49.894;10.886;2023-09-07T10:31:55;28.20;87.40
60701;DHT22;46541;49.894;10.886;2023-09-07T10:34:34;28.30;88.60
60701;DHT22;46541;49.894;10.886;2023-09-07T10:37:02;28.60;87.30
60701;DHT22;46541;49.894;10.886;2023-09-07T10:39:33;28.70;86.50
60701;DHT22;46541;49.894;10.886;2023-09-07T10:42:00;29.00;86.00
60701;DHT22;46541;49.894;10.886;2023-09-07T10:44:27;29.00;84.30
60701;DHT22;46541;49.894;10.886;2023-09-07T10:46:56;29.00;83.80
60701;DHT22;46541;49.894;10.886;2023-09-07T10:49:24;28.90;82.70
60701;DHT22;46541;49.894;10.886;2023-09-07T10:51:51;29.00;83.10
60701;DHT22;46541;49.894;10.886;2023-09-07T10:54:23;29.60;82.90
60701;DHT22;46541;49.894;10.886;2023-09-07T10:56:50;30.60;81.30
60701;DHT22;46541;49.894;10.886;2023-09-07T10:59:17;31.20;79.70
60701;DHT22;46541;49.894;10.886;2023-09-07T11:01:44;31.10;74.30
60701;DHT22;46541;49.894;10.886;2023-09-07T11:04:12;31.60;72.80
60701;DHT22;46541;49.894;10.886;2023-09-07T11:06:42;32.30;71.70
60701;DHT22;46541;49.894;10.886;2023-09-07T11:09:09;33.10;70.90
60701;DHT22;46541;49.894;10.886;2023-09-07T11:11:38;33.90;69.20
60701;DHT22;46541;49.894;10.886;2023-09-07T11:14:06;33.20;67.80
60701;DHT22;46541;49.894;10.886;2023-09-07T11:16:33;32.80;67.50
60701;DHT22;46541;49.894;10.886;2023-09-07T11:19:04;33.50;67.60
60701;DHT22;46541;49.894;10.886;2023-09-07T11:21:32;34.70;64.90
60701;DHT22;46541;49.894;10.886;2023-09-07T11:24:01;35.00;64.40
60701;DHT22;46541;49.894;10.886;2023-09-07T11:26:44;34.20;64.20
60701;DHT22;46541;49.894;10.886;2023-09-07T11:29:15;33.40;65.50
60701;DHT22;46541;49.894;10.886;2023-09-07T11:31:44;32.70;66.40
60701;DHT22;46541;49.894;10.886;2023-09-07T11:34:12;32.00;67.60
60701;DHT22;46541;49.894;10.886;2023-09-07T11:36:40;31.80;68.30
60701;DHT22;46541;49.894;10.886;2023-09-07T11:39:07;31.30;67.30
60701;DHT22;46541;49.894;10.886;2023-09-07T11:41:42;30.90;68.60
60701;DHT22;46541;49.894;10.886;2023-09-07T11:44:11;30.60;68.90
60701;DHT22;46541;49.894;10.886;2023-09-07T11:46:39;30.40;70.10
60701;DHT22;46541;49.894;10.886;2023-09-07T11:49:06;30.20;70.10
60701;DHT22;46541;49.894;10.886;2023-09-07T11:51:33;30.20;70.10
60701;DHT22;46541;49.894;10.886;2023-09-07T11:54:02;30.00;69.40
60701;DHT22;46541;49.894;10.886;2023-09-07T11:56:29;30.00;70.00
60701;DHT22;46541;49.894;10.886;2023-09-07T11:58:57;29.90;69.80
60701;DHT22;46541;49.894;10.886;2023-09-07T12:01:24;29.80;70.10
60701;DHT22;46541;49.894;10.886;2023-09-07T12:03:53;29.70;70.40
60701;DHT22;46541;49.894;10.886;2023-09-07T12:06:20;29.80;69.60
60701;DHT22;46541;49.894;10.886;2023-09-07T12:11:26;29.70;70.00
60701;DHT22;46541;49.894;10.886;2023-09-07T12:13:53;29.70;69.40
60701;DHT22;46541;49.894;10.886;2023-09-07T12:16:20;29.60;69.10
60701;DHT22;46541;49.894;10.886;2023-09-07T12:18:47;29.60;68.70
60701;DHT22;46541;49.894;10.886;2023-09-07T12:21:14;29.60;70.00
60701;DHT22;46541;49.894;10.886;2023-09-07T12:23:41;29.60;69.00
60701;DHT22;46541;49.894;10.886;2023-09-07T12:26:07;29.50;69.60
60701;DHT22;46541;49.894;10.886;2023-09-07T12:28:35;29.50;68.10
60701;DHT22;46541;49.894;10.886;2023-09-07T12:31:03;29.50;68.10
60701;DHT22;46541;49.894;10.886;2023-09-07T12:33:30;29.40;67.20
60701;DHT22;46541;49.894;10.886;2023-09-07T12:35:57;29.40;67.20
60701;DHT22;46541;49.894;10.886;2023-09-07T12:38:25;29.40;67.20
60701;DHT22;46541;49.894;10.886;2023-09-07T12:40:55;29.30;67.30
60701;DHT22;46541;49.894;10.886;2023-09-07T12:43:22;29.20;68.40
60701;DHT22;46541;49.894;10.886;2023-09-07T12:45:51;29.20;67.80
60701;DHT22;46541;49.894;10.886;2023-09-07T12:48:19;29.20;67.10
60701;DHT22;46541;49.894;10.886;2023-09-07T12:50:46;29.20;67.50
60701;DHT22;46541;49.894;10.886;2023-09-07T12:53:13;29.20;68.20
60701;DHT22;46541;49.894;10.886;2023-09-07T12:55:40;29.10;67.50
60701;DHT22;46541;49.894;10.886;2023-09-07T12:58:07;29.10;66.30
60701;DHT22;46541;49.894;10.886;2023-09-07T13:00:34;29.10;67.10
60701;DHT22;46541;49.894;10.886;2023-09-07T13:03:00;29.00;66.70
60701;DHT22;46541;49.894;10.886;2023-09-07T13:05:27;29.00;67.60
60701;DHT22;46541;49.894;10.886;2023-09-07T13:07:54;29.00;67.00
60701;DHT22;46541;49.894;10.886;2023-09-07T13:10:21;29.00;66.10
60701;DHT22;46541;49.894;10.886;2023-09-07T13:12:48;28.90;66.60
60701;DHT22;46541;49.894;10.886;2023-09-07T13:15:15;28.90;66.80
60701;DHT22;46541;49.894;10.886;2023-09-07T13:17:41;28.80;66.10
60701;DHT22;46541;49.894;10.886;2023-09-07T13:20:09;28.80;66.70
60701;DHT22;46541;49.894;10.886;2023-09-07T13:22:35;28.80;66.40
60701;DHT22;46541;49.894;10.886;2023-09-07T13:25:02;28.80;66.80
60701;DHT22;46541;49.894;10.886;2023-09-07T13:27:30;28.70;66.20
60701;DHT22;46541;49.894;10.886;2023-09-07T13:29:57;28.70;65.80
60701;DHT22;46541;49.894;10.886;2023-09-07T13:32:24;28.80;64.50
60701;DHT22;46541;49.894;10.886;2023-09-07T13:34:51;28.80;65.50
60701;DHT22;46541;49.894;10.886;2023-09-07T13:37:18;28.70;66.20
60701;DHT22;46541;49.894;10.886;2023-09-07T13:39:45;28.70;65.80
60701;DHT22;46541;49.894;10.886;2023-09-07T13:42:11;28.70;66.90
60701;DHT22;46541;49.894;10.886;2023-09-07T13:44:38;28.60;65.50
60701;DHT22;46541;49.894;10.886;2023-09-07T13:47:05;28.50;65.80
60701;DHT22;46541;49.894;10.886;2023-09-07T13:49:32;28.50;66.40
60701;DHT22;46541;49.894;10.886;2023-09-07T13:51:59;28.40;66.20
60701;DHT22;46541;49.894;10.886;2023-09-07T13:54:25;28.40;66.20
60701;DHT22;46541;49.894;10.886;2023-09-07T13:56:56;28.30;65.30
60701;DHT22;46541;49.894;10.886;2023-09-07T13:59:23;28.30;66.20
60701;DHT22;46541;49.894;10.886;2023-09-07T14:01:52;28.20;66.10
60701;DHT22;46541;49.894;10.886;2023-09-07T14:04:19;28.20;64.50
60701;DHT22;46541;49.894;10.886;2023-09-07T14:06:45;28.10;64.30
60701;DHT22;46541;49.894;10.886;2023-09-07T14:09:13;28.20;64.80
60701;DHT22;46541;49.894;10.886;2023-09-07T14:11:40;28.10;63.20
60701;DHT22;46541;49.894;10.886;2023-09-07T14:14:07;28.20;63.80
60701;DHT22;46541;49.894;10.886;2023-09-07T14:16:34;28.20;63.80
60701;DHT22;46541;49.894;10.886;2023-09-07T14:19:01;28.20;65.20
60701;DHT22;46541;49.894;10.886;2023-09-07T14:21:27;28.20;64.80
60701;DHT22;46541;49.894;10.886;2023-09-07T14:23:54;28.10;63.10
60701;DHT22;46541;49.894;10.886;2023-09-07T14:26:22;28.10;65.00
60701;DHT22;46541;49.894;10.886;2023-09-07T14:28:48;28.00;64.20
60701;DHT22;46541;49.894;10.886;2023-09-07T14:31:16;28.00;64.40
60701;DHT22;46541;49.894;10.886;2023-09-07T14:33:43;28.00;64.30
60701;DHT22;46541;49.894;10.886;2023-09-07T14:36:10;28.00;64.90
60701;DHT22;46541;49.894;10.886;2023-09-07T14:38:37;27.90;64.80
60701;DHT22;46541;49.894;10.886;2023-09-07T14:41:08;27.90;65.60
60701;DHT22;46541;49.894;10.886;2023-09-07T14:43:46;28.00;64.30
60701;DHT22;46541;49.894;10.886;2023-09-07T14:46:13;28.20;63.70
60701;DHT22;46541;49.894;10.886;2023-09-07T14:48:41;28.20;63.50
60701;DHT22;46541;49.894;10.886;2023-09-07T14:51:07;28.30;63.40
60701;DHT22;46541;49.894;10.886;2023-09-07T14:53:34;28.30;63.40
60701;DHT22;46541;49.894;10.886;2023-09-07T14:56:01;28.30;64.20
60701;DHT22;46541;49.894;10.886;2023-09-07T14:58:28;28.30;63.20
60701;DHT22;46541;49.894;10.886;2023-09-07T15:00:55;28.30;63.70
60701;DHT22;46541;49.894;10.886;2023-09-07T15:03:22;28.30;63.10
60701;DHT22;46541;49.894;10.886;2023-09-07T15:05:49;28.20;63.10
60701;DHT22;46541;49.894;10.886;2023-09-07T15:08:16;28.20;63.40
60701;DHT22;46541;49.894;10.886;2023-09-07T15:10:43;28.30;63.80
60701;DHT22;46541;49.894;10.886;2023-09-07T15:13:10;28.20;62.90
60701;DHT22;46541;49.894;10.886;2023-09-07T15:15:37;28.20;63.90
60701;DHT22;46541;49.894;10.886;2023-09-07T15:18:06;28.10;64.10
60701;DHT22;46541;49.894;10.886;2023-09-07T15:20:34;28.10;64.10
60701;DHT22;46541;49.894;10.886;2023-09-07T15:23:02;28.00;64.30